createdAt,value
2022-09-11T00:01:48.495Z,87.85
2022-09-11T00:04:20.917Z,88.70
2022-09-11T00:06:53.267Z,88.35
2022-09-11T00:09:25.649Z,87.87
2022-09-11T00:11:58.638Z,88.02
2022-09-11T00:14:31.095Z,88.17
2022-09-11T00:17:03.387Z,88.30
2022-09-11T00:19:35.669Z,88.31
2022-09-11T00:22:08.620Z,88.29
2022-09-11T00:24:40.970Z,87.95
2022-09-11T00:27:13.957Z,87.98
2022-09-11T00:29:47.210Z,88.37
2022-09-11T00:32:20.044Z,88.28
2022-09-11T00:34:52.364Z,88.68
2022-09-11T00:37:24.930Z,89.36
2022-09-11T00:39:57.383Z,88.64
2022-09-11T00:42:30.418Z,89.26
2022-09-11T00:45:06.638Z,89.09
2022-09-11T00:47:39.038Z,88.61
2022-09-11T00:50:15.518Z,88.89
2022-09-11T00:52:53.438Z,89.80
2022-09-11T00:55:30.568Z,90.14
2022-09-11T00:58:07.749Z,90.06
2022-09-11T01:00:43.973Z,89.72
2022-09-11T01:03:17.074Z,89.59
2022-09-11T01:05:51.727Z,89.49
2022-09-11T01:08:24.339Z,89.47
2022-09-11T01:11:11.159Z,89.68
2022-09-11T01:13:50.634Z,89.86
2022-09-11T01:16:33.191Z,89.11
2022-09-11T01:19:18.588Z,89.91
2022-09-11T01:22:21.437Z,90.68
2022-09-11T01:24:56.492Z,91.50
2022-09-11T01:27:38.860Z,91.59
2022-09-11T01:30:14.423Z,90.86
2022-09-11T01:33:15.225Z,90.19
2022-09-11T01:35:55.687Z,90.45
2022-09-11T01:38:34.143Z,91.86
2022-09-11T01:41:11.513Z,91.99
2022-09-11T01:43:50.863Z,90.54
2022-09-11T01:46:26.499Z,90.41
2022-09-11T01:49:06.359Z,90.74
2022-09-11T01:51:40.245Z,90.38
2022-09-11T01:54:16.362Z,89.67
2022-09-11T01:56:54.782Z,90.57
2022-09-11T01:59:35.354Z,90.61
2022-09-11T02:02:12.739Z,90.43
2022-09-11T02:04:49.575Z,89.99
2022-09-11T02:07:28.250Z,90.56
2022-09-11T02:10:07.902Z,90.43
2022-09-11T02:12:45.619Z,90.84
2022-09-11T02:15:18.942Z,90.67
2022-09-11T02:18:00.737Z,90.40
2022-09-11T02:20:35.521Z,90.32
2022-09-11T02:23:07.883Z,90.39
2022-09-11T02:25:40.800Z,90.04
2022-09-11T02:28:13.523Z,90.32
2022-09-11T02:30:47.622Z,89.87
2022-09-11T02:33:31.623Z,89.78
2022-09-11T02:36:44.678Z,90.29
2022-09-11T02:39:30.451Z,91.45
2022-09-11T02:42:24.207Z,92.21
2022-09-11T02:45:05.523Z,91.14
2022-09-11T02:47:46.788Z,91.52
2022-09-11T02:50:28.356Z,92.05
2022-09-11T02:53:05.769Z,92.21
2022-09-11T02:55:53.685Z,92.22
2022-09-11T02:58:30.348Z,91.66
2022-09-11T03:01:04.585Z,91.33
2022-09-11T03:03:39.950Z,91.21
2022-09-11T03:06:16.351Z,90.89
2022-09-11T03:08:48.995Z,90.07
2022-09-11T03:11:22.421Z,90.63
2022-09-11T03:13:57.682Z,91.01
2022-09-11T03:16:30.172Z,91.18
2022-09-11T03:19:03.608Z,90.93
2022-09-11T03:21:36.426Z,90.75
2022-09-11T03:24:09.058Z,91.35
2022-09-11T03:26:42.659Z,91.45
2022-09-11T03:29:15.452Z,91.40
2022-09-11T03:31:48.218Z,90.59
2022-09-11T03:34:22.439Z,91.02
2022-09-11T03:36:55.197Z,90.74
2022-09-11T03:39:27.802Z,90.55
2022-09-11T03:42:00.397Z,90.30
2022-09-11T03:44:33.784Z,90.68
2022-09-11T03:47:06.189Z,90.18
2022-09-11T03:49:39.227Z,90.47
2022-09-11T03:52:11.543Z,89.75
2022-09-11T03:54:46.771Z,89.57
2022-09-11T03:57:19.131Z,90.08
2022-09-11T03:59:51.548Z,90.02
2022-09-11T04:02:23.878Z,90.50
2022-09-11T04:04:58.943Z,91.13
2022-09-11T04:07:31.269Z,90.75
2022-09-11T04:10:04.090Z,90.46
2022-09-11T04:12:36.545Z,90.36
2022-09-11T04:15:09.451Z,90.89
2022-09-11T04:17:41.751Z,91.03
2022-09-11T04:20:16.463Z,91.40
2022-09-11T04:22:50.306Z,90.82
2022-09-11T04:25:22.695Z,91.41
2022-09-11T04:27:56.115Z,91.61
2022-09-11T04:30:28.775Z,91.61
2022-09-11T04:33:01.343Z,92.04
2022-09-11T04:35:38.598Z,92.28
2022-09-11T04:38:11.055Z,92.41
2022-09-11T04:40:44.857Z,92.53
2022-09-11T04:43:17.898Z,92.02
2022-09-11T04:45:50.798Z,91.89
2022-09-11T04:48:23.806Z,92.36
2022-09-11T04:51:02.503Z,92.59
2022-09-11T04:53:35.487Z,92.81
2022-09-11T04:56:12.792Z,93.33
2022-09-11T04:58:53.558Z,93.82
2022-09-11T05:01:30.757Z,94.17
2022-09-11T05:04:04.333Z,93.91
2022-09-11T05:06:37.587Z,93.50
2022-09-11T05:09:15.639Z,93.68
2022-09-11T05:11:48.153Z,94.36
2022-09-11T05:14:21.802Z,94.09
2022-09-11T05:16:56.146Z,94.37
2022-09-11T05:19:30.877Z,94.55
2022-09-11T05:22:03.987Z,95.66
2022-09-11T05:24:36.605Z,95.22
2022-09-11T05:27:09.345Z,95.12
2022-09-11T05:29:41.671Z,95.27
2022-09-11T05:32:16.494Z,95.25
2022-09-11T05:34:49.574Z,95.73
2022-09-11T05:37:24.770Z,95.72
2022-09-11T05:39:58.576Z,95.94
2022-09-11T05:42:31.169Z,95.53
2022-09-11T05:45:04.162Z,95.37
2022-09-11T05:47:37.480Z,95.47
2022-09-11T05:50:10.084Z,95.62
2022-09-11T05:52:43.181Z,95.59
2022-09-11T05:55:15.947Z,96.03
2022-09-11T05:57:48.410Z,95.77
2022-09-11T06:00:21.307Z,95.40
2022-09-11T06:02:57.555Z,95.44
2022-09-11T06:05:33.631Z,96.14
2022-09-11T06:08:10.265Z,95.60
2022-09-11T06:10:46.134Z,94.76
2022-09-11T06:13:19.106Z,92.91
2022-09-11T06:15:53.180Z,91.10
2022-09-11T06:18:25.889Z,88.19
2022-09-11T06:21:00.906Z,88.72
2022-09-11T06:23:39.354Z,88.87
2022-09-11T06:26:14.906Z,88.46
2022-09-11T06:28:50.203Z,87.44
2022-09-11T06:31:25.114Z,86.89
2022-09-11T06:33:59.820Z,86.75
2022-09-11T06:36:32.568Z,86.73
2022-09-11T06:39:09.952Z,86.84
2022-09-11T06:41:44.186Z,86.09
2022-09-11T06:44:19.638Z,85.45
2022-09-11T06:46:52.191Z,85.00
2022-09-11T06:49:26.025Z,84.84
2022-09-11T06:52:17.263Z,84.44
2022-09-11T06:54:59.462Z,81.90
2022-09-11T06:57:31.892Z,81.35
2022-09-11T07:00:05.581Z,81.38
2022-09-11T07:02:42.945Z,80.37
2022-09-11T07:05:17.036Z,78.84
2022-09-11T07:07:54.730Z,78.07
2022-09-11T07:10:28.629Z,77.37
2022-09-11T07:13:04.435Z,76.46
2022-09-11T07:15:36.888Z,74.42
2022-09-11T07:18:10.750Z,73.18
2022-09-11T07:20:43.075Z,72.87
2022-09-11T07:23:16.150Z,72.22
2022-09-11T07:25:49.751Z,71.16
2022-09-11T07:28:22.339Z,69.96
2022-09-11T07:30:54.747Z,70.24
2022-09-11T07:33:27.542Z,69.83
2022-09-11T07:36:07.245Z,68.69
2022-09-11T07:38:40.649Z,67.04
2022-09-11T07:41:16.030Z,66.88
2022-09-11T07:43:52.286Z,66.71
2022-09-11T07:46:26.211Z,66.51
2022-09-11T07:49:01.318Z,66.41
2022-09-11T07:51:34.139Z,66.55
2022-09-11T07:54:09.903Z,66.17
2022-09-11T07:56:44.047Z,65.86
2022-09-11T07:59:17.659Z,64.62
2022-09-11T08:01:52.230Z,63.92
2022-09-11T08:04:25.903Z,62.05
2022-09-11T08:06:59.328Z,62.59
2022-09-11T08:09:35.836Z,62.06
2022-09-11T08:12:11.340Z,62.45
2022-09-11T08:14:44.423Z,61.67
2022-09-11T08:17:22.423Z,61.71
2022-09-11T08:19:54.960Z,62.71
2022-09-11T08:22:28.246Z,62.80
2022-09-11T08:25:00.527Z,60.64
2022-09-11T08:27:34.987Z,59.66
2022-09-11T08:30:09.198Z,58.30
2022-09-11T08:32:42.079Z,58.00
2022-09-11T08:35:14.993Z,56.33
2022-09-11T08:37:51.602Z,55.64
2022-09-11T08:40:28.778Z,57.91
2022-09-11T08:43:04.755Z,56.85
2022-09-11T08:45:38.022Z,56.82
2022-09-11T08:48:12.697Z,57.59
2022-09-11T08:50:45.363Z,56.01
2022-09-11T08:53:20.091Z,57.32
2022-09-11T08:56:00.016Z,55.89
2022-09-11T08:58:44.221Z,55.76
2022-09-11T09:01:25.421Z,55.86
2022-09-11T09:04:29.466Z,54.51
2022-09-11T09:07:09.969Z,56.02
2022-09-11T09:09:55.378Z,56.65
2022-09-11T09:12:38.658Z,55.25
2022-09-11T09:15:29.191Z,55.09
2022-09-11T09:18:08.511Z,52.88
2022-09-11T09:20:45.839Z,53.38
2022-09-11T09:23:23.421Z,54.24
2022-09-11T09:25:56.472Z,54.40
2022-09-11T09:28:34.546Z,54.74
2022-09-11T09:31:10.830Z,54.97
2022-09-11T09:33:49.208Z,55.69
2022-09-11T09:36:29.779Z,53.92
2022-09-11T09:39:02.530Z,51.88
2022-09-11T09:42:04.804Z,52.78
2022-09-11T09:45:00.385Z,52.66
2022-09-11T09:47:33.631Z,51.39
2022-09-11T09:50:16.069Z,51.73
2022-09-11T09:52:49.455Z,50.16
2022-09-11T09:55:22.091Z,50.25
2022-09-11T09:57:54.371Z,49.48
2022-09-11T10:00:27.266Z,48.25
2022-09-11T10:03:17.995Z,48.31
2022-09-11T10:05:53.729Z,47.99
2022-09-11T10:08:30.700Z,47.52
2022-09-11T10:11:05.170Z,46.28
2022-09-11T10:13:40.571Z,46.88
2022-09-11T10:16:20.532Z,45.89
2022-09-11T10:18:54.872Z,45.66
2022-09-11T10:21:29.665Z,44.15
2022-09-11T10:24:19.191Z,44.94
2022-09-11T10:26:55.116Z,43.23
2022-09-11T10:29:29.343Z,43.27
2022-09-11T10:32:03.538Z,43.75
2022-09-11T10:34:38.476Z,41.67
2022-09-11T10:37:23.998Z,41.64
2022-09-11T10:40:05.383Z,41.16
2022-09-11T10:42:40.687Z,41.20
2022-09-11T10:45:16.386Z,39.69
2022-09-11T10:47:48.744Z,40.87
2022-09-11T10:50:24.617Z,42.00
2022-09-11T10:53:12.270Z,42.80
2022-09-11T10:55:51.584Z,42.76
2022-09-11T10:58:29.603Z,42.31
2022-09-11T11:01:02.077Z,41.56
2022-09-11T11:03:34.963Z,41.02
2022-09-11T11:06:20.694Z,39.81
2022-09-11T11:09:27.699Z,40.67
2022-09-11T11:12:21.123Z,41.21
2022-09-11T11:15:19.491Z,41.26
2022-09-11T11:18:02.851Z,41.62
2022-09-11T11:20:44.666Z,42.57
2022-09-11T11:23:34.341Z,42.14
2022-09-11T11:26:20.034Z,42.85
2022-09-11T11:29:10.095Z,40.75
2022-09-11T11:32:01.176Z,43.50
2022-09-11T11:34:46.172Z,44.30
2022-09-11T11:37:24.631Z,45.11
2022-09-11T11:40:01.733Z,43.60
2022-09-11T11:42:38.211Z,44.26
2022-09-11T11:45:22.157Z,45.09
2022-09-11T11:47:55.153Z,43.62
2022-09-11T11:50:34.104Z,43.91
2022-09-11T11:53:13.485Z,43.12
2022-09-11T11:55:56.514Z,43.89
2022-09-11T11:58:41.770Z,44.28
2022-09-11T12:01:22.104Z,43.68
2022-09-11T12:04:02.545Z,43.34
2022-09-11T12:06:34.966Z,42.54
2022-09-11T12:09:08.883Z,41.86
2022-09-11T12:11:45.931Z,42.34
2022-09-11T12:14:27.375Z,42.37
2022-09-11T12:17:17.695Z,43.23
2022-09-11T12:20:29.683Z,44.13
2022-09-11T12:23:03.590Z,43.46
2022-09-11T12:26:13.632Z,42.81
2022-09-11T12:28:46.943Z,44.06
2022-09-11T12:31:19.275Z,41.50
2022-09-11T12:33:56.616Z,42.71
2022-09-11T12:36:49.334Z,43.70
2022-09-11T12:39:30.029Z,44.17
2022-09-11T12:42:39.589Z,44.68
2022-09-11T12:45:32.463Z,43.07
2022-09-11T12:48:08.546Z,44.58
2022-09-11T12:50:50.048Z,44.98
2022-09-11T12:53:26.898Z,44.59
2022-09-11T12:56:01.355Z,43.23
2022-09-11T12:58:37.626Z,44.55
2022-09-11T13:01:19.481Z,43.28
2022-09-11T13:03:58.238Z,43.93
2022-09-11T13:06:40.855Z,43.50
2022-09-11T13:09:21.194Z,44.09
2022-09-11T13:11:55.097Z,44.88
2022-09-11T13:14:50.861Z,42.73
2022-09-11T13:17:27.354Z,43.56
2022-09-11T13:20:22.114Z,42.95
2022-09-11T13:23:12.307Z,44.89
2022-09-11T13:25:44.706Z,43.87
2022-09-11T13:28:23.222Z,44.12
2022-09-11T13:31:01.399Z,44.63
2022-09-11T13:33:34.535Z,44.05
2022-09-11T13:36:14.234Z,45.72
2022-09-11T13:38:51.631Z,45.50
2022-09-11T13:41:29.133Z,45.83
2022-09-11T13:44:02.739Z,45.14
2022-09-11T13:46:35.079Z,45.36
2022-09-11T13:49:27.398Z,45.39
2022-09-11T13:52:00.305Z,45.57
2022-09-11T13:54:37.553Z,45.54
2022-09-11T13:57:15.583Z,46.14
2022-09-11T13:59:51.241Z,46.85
2022-09-11T14:02:47.772Z,46.31
2022-09-11T14:05:25.311Z,46.80
2022-09-11T14:08:00.817Z,47.22
2022-09-11T14:10:37.692Z,47.04
2022-09-11T14:13:16.248Z,47.21
2022-09-11T14:15:52.241Z,46.55
2022-09-11T14:18:29.757Z,46.70
2022-09-11T14:21:05.249Z,46.98
2022-09-11T14:23:43.148Z,47.45
2022-09-11T14:26:17.506Z,46.59
2022-09-11T14:29:02.857Z,45.71
2022-09-11T14:31:37.830Z,45.39
2022-09-11T14:34:16.844Z,45.58
2022-09-11T14:36:56.313Z,46.52
2022-09-11T14:39:32.787Z,45.09
2022-09-11T14:42:07.770Z,43.94
2022-09-11T14:44:41.164Z,44.87
2022-09-11T14:47:16.784Z,45.31
2022-09-11T14:49:51.091Z,44.65
2022-09-11T14:52:26.055Z,44.53
2022-09-11T14:54:59.910Z,44.51
2022-09-11T14:57:34.521Z,43.38
2022-09-11T15:00:08.252Z,44.50
2022-09-11T15:02:41.434Z,44.91
2022-09-11T15:05:16.102Z,44.94
2022-09-11T15:07:49.184Z,43.06
2022-09-11T15:10:21.882Z,43.25
2022-09-11T15:12:54.836Z,44.18
2022-09-11T15:15:27.955Z,43.04
2022-09-11T15:18:00.358Z,43.39
2022-09-11T15:20:32.819Z,43.39
2022-09-11T15:23:06.103Z,44.24
2022-09-11T15:25:38.404Z,43.22
2022-09-11T15:28:10.637Z,44.11
2022-09-11T15:30:42.943Z,44.75
2022-09-11T15:33:15.288Z,44.23
2022-09-11T15:35:47.633Z,44.85
2022-09-11T15:38:20.754Z,44.25
2022-09-11T15:40:55.634Z,43.95
2022-09-11T15:43:36.759Z,46.47
2022-09-11T15:46:10.642Z,45.11
2022-09-11T15:48:43.163Z,45.75
2022-09-11T15:51:17.353Z,48.37
2022-09-11T15:53:51.623Z,47.09
2022-09-11T15:56:25.936Z,47.24
2022-09-11T15:59:00.232Z,49.61
2022-09-11T16:01:35.189Z,51.04
2022-09-11T16:04:09.659Z,52.06
2022-09-11T16:06:45.043Z,51.82
2022-09-11T16:09:20.688Z,53.71
2022-09-11T16:11:54.136Z,56.87
2022-09-11T16:14:28.367Z,60.45
2022-09-11T16:17:02.323Z,62.27
2022-09-11T16:19:35.654Z,66.37
2022-09-11T16:22:08.127Z,69.41
2022-09-11T16:24:41.827Z,66.87
2022-09-11T16:27:15.063Z,70.34
2022-09-11T16:32:39.843Z,72.05
2022-09-11T16:35:13.556Z,71.62
2022-09-11T16:37:46.367Z,74.37
2022-09-11T16:40:19.416Z,76.15
2022-09-11T16:42:52.653Z,75.92
2022-09-11T16:45:25.025Z,77.88
2022-09-11T16:47:59.230Z,78.61
2022-09-11T16:50:32.244Z,78.74
2022-09-11T16:53:05.365Z,80.22
2022-09-11T16:55:38.919Z,81.09
2022-09-11T16:58:11.799Z,82.07
2022-09-11T17:00:44.161Z,80.88
2022-09-11T17:03:17.151Z,80.82
2022-09-11T17:05:55.172Z,78.26
2022-09-11T17:08:27.811Z,76.27
2022-09-11T17:11:02.073Z,77.87
2022-09-11T17:13:34.424Z,77.36
2022-09-11T17:16:12.613Z,77.64
2022-09-11T17:18:51.460Z,76.95
2022-09-11T17:21:25.932Z,78.46
2022-09-11T17:23:58.288Z,75.04
2022-09-11T17:26:32.067Z,76.45
2022-09-11T17:29:05.775Z,75.50
2022-09-11T17:31:38.198Z,76.19
2022-09-11T17:34:10.951Z,74.08
2022-09-11T17:36:43.541Z,78.03
2022-09-11T17:39:16.232Z,78.08
2022-09-11T17:41:49.192Z,79.92
2022-09-11T17:44:25.097Z,78.47
2022-09-11T17:47:01.557Z,79.04
2022-09-11T17:49:33.997Z,79.07
2022-09-11T17:52:06.569Z,79.71
2022-09-11T17:54:38.896Z,81.01
2022-09-11T17:57:13.889Z,83.06
2022-09-11T17:59:49.488Z,81.22
2022-09-11T18:02:22.920Z,81.28
2022-09-11T18:04:55.244Z,80.83
2022-09-11T18:07:27.576Z,79.45
2022-09-11T18:09:59.936Z,79.26
2022-09-11T18:12:34.580Z,77.72
2022-09-11T18:15:08.451Z,77.39
2022-09-11T18:17:40.753Z,77.70
2022-09-11T18:20:14.123Z,77.29
2022-09-11T18:22:46.427Z,77.71
2022-09-11T18:25:23.014Z,78.50
2022-09-11T18:27:55.999Z,78.22
2022-09-11T18:30:30.315Z,79.89
2022-09-11T18:33:02.626Z,79.61
2022-09-11T18:35:35.347Z,80.60
2022-09-11T18:38:07.781Z,80.21
2022-09-11T18:40:40.144Z,80.86
2022-09-11T18:43:13.105Z,79.62
2022-09-11T18:45:45.876Z,79.31
2022-09-11T18:48:18.197Z,79.36
2022-09-11T18:50:51.584Z,80.15
2022-09-11T18:53:25.236Z,80.22
2022-09-11T18:56:01.150Z,79.00
2022-09-11T18:58:36.844Z,79.09
2022-09-11T19:01:15.461Z,80.60
2022-09-11T19:03:51.138Z,82.10
2022-09-11T19:06:25.547Z,82.70
2022-09-11T19:09:01.091Z,82.98
2022-09-11T19:11:34.711Z,83.00
2022-09-11T19:14:09.884Z,82.55
2022-09-11T19:16:43.220Z,83.27
2022-09-11T19:19:15.581Z,83.28
2022-09-11T19:21:49.085Z,84.21
2022-09-11T19:24:22.935Z,84.23
2022-09-11T19:26:55.877Z,83.09
2022-09-11T19:29:29.092Z,82.70
2022-09-11T19:32:02.151Z,82.12
2022-09-11T19:34:38.786Z,81.67
2022-09-11T19:37:14.323Z,83.19
2022-09-11T19:39:50.785Z,83.73
2022-09-11T19:42:23.526Z,84.22
2022-09-11T19:44:56.815Z,84.37
2022-09-11T19:47:29.133Z,83.58
2022-09-11T19:50:01.607Z,85.15
2022-09-11T19:52:34.394Z,86.09
2022-09-11T19:55:07.325Z,87.89
2022-09-11T19:57:39.603Z,88.60
2022-09-11T20:00:13.326Z,89.38
2022-09-11T20:02:45.894Z,89.38
2022-09-11T20:05:18.256Z,87.78
2022-09-11T20:07:50.611Z,87.75
2022-09-11T20:10:23.403Z,88.74
2022-09-11T20:12:55.802Z,89.09
2022-09-11T20:15:28.906Z,90.13
2022-09-11T20:18:04.194Z,91.09
2022-09-11T20:20:37.431Z,90.73
2022-09-11T20:23:11.399Z,90.53
2022-09-11T20:25:43.707Z,91.31
2022-09-11T20:28:15.991Z,91.91
2022-09-11T20:30:48.967Z,91.65
2022-09-11T20:33:21.483Z,91.38
2022-09-11T20:35:53.803Z,91.26
2022-09-11T20:38:27.375Z,92.12
2022-09-11T20:41:04.866Z,92.36
2022-09-11T20:43:37.323Z,92.62
2022-09-11T20:46:10.368Z,91.93
2022-09-11T20:48:42.663Z,90.64
2022-09-11T20:51:15.202Z,90.15
2022-09-11T20:53:47.770Z,91.25
2022-09-11T20:56:21.707Z,92.00
2022-09-11T20:58:54.059Z,92.70
2022-09-11T21:01:29.176Z,92.02
2022-09-11T21:04:03.439Z,92.50
2022-09-11T21:06:35.822Z,92.33
2022-09-11T21:09:10.680Z,92.59
2022-09-11T21:11:43.301Z,92.73
2022-09-11T21:14:16.494Z,90.95
2022-09-11T21:16:49.457Z,92.16
2022-09-11T21:19:21.781Z,91.32
2022-09-11T21:21:54.062Z,91.07
2022-09-11T21:24:26.699Z,91.69
2022-09-11T21:26:59.012Z,91.18
2022-09-11T21:29:31.348Z,91.06
2022-09-11T21:32:04.390Z,88.62
2022-09-11T21:34:36.671Z,90.17
2022-09-11T21:37:08.935Z,91.07
2022-09-11T21:39:41.373Z,91.36
2022-09-11T21:42:13.754Z,89.67
2022-09-11T21:44:46.065Z,90.27
2022-09-11T21:47:19.029Z,90.57
2022-09-11T21:49:51.415Z,90.49
2022-09-11T21:52:26.499Z,91.24
2022-09-11T21:54:58.814Z,90.52
2022-09-11T21:57:31.250Z,90.32
2022-09-11T22:00:08.304Z,90.92
2022-09-11T22:02:41.231Z,90.60
2022-09-11T22:05:13.604Z,90.72
2022-09-11T22:07:45.935Z,89.06
2022-09-11T22:10:18.384Z,88.86
2022-09-11T22:12:50.816Z,90.28
2022-09-11T22:15:23.175Z,90.87
2022-09-11T22:17:56.168Z,91.62
2022-09-11T22:20:28.494Z,91.55
2022-09-11T22:23:00.863Z,91.45
2022-09-11T22:25:35.950Z,90.97
2022-09-11T22:28:08.352Z,91.25
2022-09-11T22:30:41.749Z,90.93
2022-09-11T22:33:14.730Z,91.42
2022-09-11T22:35:49.459Z,90.48
2022-09-11T22:38:21.942Z,91.01
2022-09-11T22:40:54.616Z,90.70
2022-09-11T22:43:26.914Z,90.19
2022-09-11T22:45:59.407Z,90.43
2022-09-11T22:48:32.813Z,91.59
2022-09-11T22:51:05.288Z,92.11
2022-09-11T22:53:38.835Z,90.62
2022-09-11T22:56:13.099Z,92.31
2022-09-11T22:58:45.414Z,93.19
2022-09-11T23:01:21.896Z,93.02
2022-09-11T23:03:55.519Z,92.79
2022-09-11T23:06:45.980Z,93.18
2022-09-11T23:09:18.394Z,92.30
2022-09-11T23:11:50.723Z,91.22
2022-09-11T23:14:23.045Z,91.30
2022-09-11T23:16:55.360Z,92.56
2022-09-11T23:19:29.150Z,93.87
2022-09-11T23:22:01.498Z,94.05
2022-09-11T23:24:33.858Z,94.75
2022-09-11T23:27:06.182Z,94.58
2022-09-11T23:29:38.686Z,94.46
2022-09-11T23:32:11.041Z,94.10
2022-09-11T23:34:43.979Z,92.68
2022-09-11T23:37:16.382Z,92.11
2022-09-11T23:39:48.685Z,92.58
2022-09-11T23:42:21.084Z,91.97
2022-09-11T23:44:53.375Z,91.87
2022-09-11T23:47:25.741Z,92.18
2022-09-11T23:49:58.711Z,91.51
2022-09-11T23:52:32.102Z,91.10
2022-09-11T23:55:04.856Z,91.01
2022-09-11T23:57:37.564Z,91.57
